Time;durP1;ratioP1;P1;durP2;ratioP2;P2;SDS_P1;SDS_P2;PMS_P1;PMS_P2;Temp;Humidity;BMP_temperature;BMP_pressure;BME280_temperature;BME280_humidity;BME280_pressure;Samples;Min_cycle;Max_cycle;Signal;HPM_P1;HPM_P2
2022/05/28 05:15:03;;;;;;;16.67;2.42;;;12.90;1.00;;;;;;6187304;23;20044;-85
2022/05/28 11:36:03;;;;;;;8.38;2.05;;;15.50;1.00;;;;;;6212266;22;20448;-92
2022/05/28 11:40:13;;;;;;;10.20;1.50;;;15.40;1.00;;;;;;6168040;23;20096;-92
2022/05/28 11:47:17;;;;;;;;;;;;;;;;;;;;;
2022/05/28 11:54:32;;;;;;;10.98;1.08;;;16.20;1.00;;;;;;6205234;23;20013;-92
2022/05/28 11:57:34;;;;;;;4.35;1.58;;;16.20;1.00;;;;;;6182778;23;20013;-92
2022/05/28 12:00:36;;;;;;;8.13;1.13;;;16.30;1.00;;;;;;6164633;23;20017;-94
2022/05/28 12:03:37;;;;;;;8.43;1.73;;;16.10;1.00;;;;;;6142619;23;20021;-93
2022/05/28 12:07:06;;;;;;;4.38;1.00;;;16.50;1.00;;;;;;6169942;23;20013;-92
2022/05/28 12:10:13;;;;;;;4.63;1.13;;;16.40;1.00;;;;;;6156641;23;20016;-92
2022/05/28 12:13:46;;;;;;;4.30;1.33;;;16.60;1.00;;;;;;6142728;23;20031;-91
2022/05/28 12:30:33;;;;;;;5.30;1.27;;;17.20;1.00;;;;;;5999452;23;20106;-92
2022/05/28 12:41:28;;;;;;;4.07;0.73;;;17.30;1.00;;;;;;6014466;23;20059;-92
2022/05/28 12:45:06;;;;;;;4.22;1.08;;;17.50;1.00;;;;;;6165502;23;20096;-91
2022/05/28 12:52:17;;;;;;;16.08;2.10;;;17.90;1.00;;;;;;6073395;23;20014;-91
2022/05/28 12:55:35;;;;;;;6.30;1.50;;;17.70;1.00;;;;;;6124398;23;20017;-92
2022/05/28 12:58:45;;;;;;;8.70;1.38;;;17.60;1.00;;;;;;6174634;23;20084;-92
2022/05/28 13:05:48;;;;;;;;;;;;;;;;;;;;;
2022/05/28 13:09:43;;;;;;;;;;;;;;;;;;;;;
2022/05/28 13:13:32;;;;;;;11.50;1.13;;;17.90;1.00;;;;;;5954994;24;20480;-92
2022/05/28 13:21:05;;;;;;;10.82;1.25;;;17.90;1.00;;;;;;6039512;23;20094;-91
2022/05/28 13:25:12;;;;;;;;;;;;;;;;;;;;;
2022/05/28 13:29:01;;;;;;;5.20;0.90;;;18.30;1.00;;;;;;5963497;24;20020;-92
2022/05/28 13:32:18;;;;;;;9.55;1.27;;;17.80;1.00;;;;;;5959296;24;20092;-90
2022/05/28 13:35:13;;;;;;;6.40;1.10;;;18.00;1.00;;;;;;5963878;24;20025;-87
2022/05/28 13:37:44;;;;;;;4.35;1.02;;;17.60;1.00;;;;;;5982631;24;20062;-87
2022/05/28 13:40:18;;;;;;;5.28;1.73;;;17.70;1.00;;;;;;5982950;24;20036;-84
2022/05/28 13:42:46;;;;;;;6.25;1.48;;;17.60;1.00;;;;;;5982140;24;20024;-87
2022/05/28 13:45:24;;;;;;;4.22;0.75;;;18.10;1.00;;;;;;5959021;24;20044;-85
2022/05/28 13:47:53;;;;;;;3.33;0.75;;;18.40;1.00;;;;;;5958634;24;20080;-85
2022/05/28 13:50:26;;;;;;;6.68;0.93;;;18.60;1.00;;;;;;5981794;23;20475;-86
2022/05/28 13:52:56;;;;;;;5.18;1.10;;;18.60;1.00;;;;;;6009717;23;20054;-86
2022/05/28 13:55:26;;;;;;;5.10;0.93;;;18.60;1.00;;;;;;6010399;23;20043;-87
2022/05/28 13:57:54;;;;;;;4.55;1.00;;;18.60;1.00;;;;;;5987145;23;20563;-87
2022/05/28 14:00:30;;;;;;;5.32;1.38;;;18.60;1.00;;;;;;6010165;23;20348;-86
2022/05/28 14:03:06;;;;;;;3.38;1.65;;;18.50;1.00;;;;;;5986235;23;20451;-88
2022/05/28 14:05:45;;;;;;;10.77;1.17;;;18.50;1.00;;;;;;6107561;23;20016;-90
2022/05/28 14:08:26;;;;;;;6.00;1.05;;;18.70;1.00;;;;;;6190383;23;20024;-85
2022/05/28 14:11:08;;;;;;;8.00;1.30;;;18.20;1.00;;;;;;6216863;23;20044;-85
2022/05/28 14:13:45;;;;;;;4.50;0.82;;;18.70;1.00;;;;;;6165274;23;20040;-88
2022/05/28 15:22:34;;;;;;;4.13;0.82;;;19.40;1.00;;;;;;6187210;23;20072;-87
2022/05/28 16:04:58;;;;;;;5.25;1.05;;;19.40;1.00;;;;;;6154398;23;20063;-92
2022/05/28 16:07:35;;;;;;;2.30;1.08;;;19.30;1.00;;;;;;6160822;23;20021;-90
2022/05/28 16:15:39;;;;;;;;;;;;;;;;;;;;;
2022/05/28 16:19:32;;;;;;;3.05;1.02;;;20.20;1.00;;;;;;6095397;23;20057;-90
2022/05/28 21:30:49;;;;;;;4.20;1.20;;;14.00;1.00;;;;;;6240820;22;20015;-92
2022/05/28 21:43:46;;;;;;;7.15;1.02;;;14.00;1.00;;;;;;6198865;22;20050;-90
